createdAt,value
2018-09-06T00:48:03.114Z,19.50
2018-09-06T03:08:48.484Z,18.90
2018-09-06T03:11:23.601Z,17.20
2018-09-06T03:13:52.329Z,17.10
2018-09-06T05:32:16.916Z,17.00
2018-09-06T06:33:58.412Z,17.30
2018-09-06T06:36:26.815Z,17.90
2018-09-06T06:38:55.212Z,18.00
2018-09-06T07:20:52.304Z,18.00
2018-09-06T07:23:20.631Z,19.50
2018-09-06T07:25:48.891Z,19.50
2018-09-06T07:28:17.240Z,19.60
2018-09-06T07:30:45.774Z,19.70
2018-09-06T07:33:14.048Z,19.90
2018-09-06T07:35:42.500Z,19.90
2018-09-06T07:38:10.800Z,20.10
2018-09-06T07:40:39.097Z,20.10
2018-09-06T07:43:07.449Z,20.20
2018-09-06T07:45:35.868Z,20.20
2018-09-06T07:48:04.212Z,20.00
2018-09-06T09:33:14.602Z,19.10
2018-09-06T09:35:43.021Z,19.70
2018-09-06T09:38:11.541Z,19.80
2018-09-06T11:17:37.786Z,19.70
2018-09-06T11:20:06.663Z,18.60
2018-09-06T12:16:59.742Z,18.60
2018-09-06T12:19:28.177Z,18.70
2018-09-06T12:21:56.876Z,18.70
2018-09-06T12:24:25.283Z,18.80
2018-09-06T12:26:53.563Z,18.80
2018-09-06T12:29:22.071Z,18.90
2018-09-06T12:31:50.544Z,18.90
2018-09-06T12:34:19.363Z,19.00
2018-09-06T12:49:08.300Z,19.00
2018-09-06T12:51:36.616Z,19.10
2018-09-06T12:54:05.010Z,19.20
2018-09-06T12:56:33.280Z,19.30
2018-09-06T12:59:01.577Z,19.40
2018-09-06T13:03:58.620Z,19.50
2018-09-06T13:06:26.989Z,19.60
2018-09-06T13:08:55.706Z,19.60
2018-09-06T13:11:24.180Z,19.50
2018-09-06T14:03:19.920Z,19.50
2018-09-06T14:05:48.629Z,19.60
2018-09-06T14:08:16.981Z,19.60
2018-09-06T14:10:46.388Z,19.50
2018-09-06T14:13:14.912Z,19.50
2018-09-06T14:15:43.246Z,19.50
2018-09-06T14:18:12.740Z,19.60
2018-09-06T14:20:41.661Z,19.50
2018-09-06T14:23:10.037Z,19.50
2018-09-06T14:25:38.401Z,19.50
2018-09-06T14:57:46.825Z,19.60
2018-09-06T15:00:15.581Z,20.10
2018-09-06T15:02:43.969Z,20.10
2018-09-06T15:05:14.162Z,20.30
2018-09-06T19:08:16.285Z,20.20
2018-09-06T19:10:46.328Z,18.40
2018-09-06T19:13:14.680Z,18.40
2018-09-06T19:15:43.081Z,18.40
2018-09-06T19:18:11.433Z,18.30
2018-09-06T19:20:39.873Z,18.30
2018-09-06T19:23:08.283Z,18.40
2018-09-06T19:25:36.889Z,18.40
2018-09-06T19:28:05.269Z,18.40
2018-09-06T19:30:33.643Z,18.40
2018-09-06T19:33:02.014Z,18.40
2018-09-06T19:35:30.630Z,18.40
2018-09-06T19:37:58.909Z,18.40
2018-09-06T19:40:27.392Z,18.40
2018-09-06T19:42:55.729Z,18.40
2018-09-06T19:45:24.078Z,18.40
2018-09-06T19:47:52.498Z,18.40
2018-09-06T19:50:20.789Z,18.50
2018-09-06T19:52:49.081Z,18.50
2018-09-06T19:55:17.385Z,18.40
2018-09-06T19:57:46.026Z,18.40
2018-09-06T20:00:14.506Z,18.20
2018-09-06T20:02:42.801Z,18.20
2018-09-06T20:05:11.202Z,18.10
2018-09-06T20:07:39.702Z,18.20
2018-09-06T20:10:08.186Z,18.20
2018-09-06T20:12:37.049Z,18.20
2018-09-06T20:15:05.774Z,18.20
2018-09-06T20:17:35.078Z,18.20
2018-09-06T20:20:04.446Z,18.20
2018-09-06T20:22:32.809Z,18.20
2018-09-06T20:25:02.419Z,18.20
2018-09-06T20:27:30.732Z,18.20
2018-09-06T20:30:01.339Z,18.20
2018-09-06T20:32:29.685Z,18.10
2018-09-06T20:34:57.968Z,18.00
2018-09-06T20:37:27.234Z,17.90
2018-09-06T20:39:55.585Z,17.90
2018-09-06T20:42:24.180Z,17.90
2018-09-06T20:44:52.630Z,17.90
2018-09-06T20:47:20.903Z,17.90
2018-09-06T20:49:49.198Z,17.80
2018-09-06T20:52:17.594Z,17.80
2018-09-06T20:54:45.862Z,17.70
2018-09-06T21:04:43.943Z,17.70
2018-09-06T21:09:40.311Z,17.60
2018-09-06T21:12:08.674Z,17.50
2018-09-06T21:14:37.057Z,17.50
2018-09-06T21:17:05.398Z,17.40
2018-09-06T21:19:33.774Z,17.40
2018-09-06T21:22:02.255Z,17.40
2018-09-06T21:24:30.566Z,17.50
2018-09-06T21:26:58.911Z,17.50
2018-09-06T21:29:27.954Z,17.50
2018-09-06T21:31:56.243Z,17.40
2018-09-06T21:34:24.602Z,17.40
2018-09-06T21:41:49.395Z,17.50
2018-09-06T21:44:17.707Z,17.40
2018-09-06T21:46:46.015Z,17.40
